sensor_id;sensor_type;location;lat;lon;timestamp;P1;durP1;ratioP1;P2;durP2;ratioP2
84476;SDS011;74700;43.228;0.108;2024-03-08T00:02:00;15.05;;;8.90;;
84476;SDS011;74700;43.228;0.108;2024-03-08T00:04:26;21.17;;;9.70;;
84476;SDS011;74700;43.228;0.108;2024-03-08T00:06:52;18.80;;;8.73;;
84476;SDS011;74700;43.228;0.108;2024-03-08T00:09:18;14.45;;;8.45;;
84476;SDS011;74700;43.228;0.108;2024-03-08T00:11:44;16.73;;;8.48;;
84476;SDS011;74700;43.228;0.108;2024-03-08T00:14:10;23.08;;;8.27;;
84476;SDS011;74700;43.228;0.108;2024-03-08T00:16:36;19.20;;;8.43;;
84476;SDS011;74700;43.228;0.108;2024-03-08T00:19:02;13.00;;;7.97;;
84476;SDS011;74700;43.228;0.108;2024-03-08T00:21:28;14.05;;;7.50;;
84476;SDS011;74700;43.228;0.108;2024-03-08T00:23:54;15.93;;;8.13;;
84476;SDS011;74700;43.228;0.108;2024-03-08T00:26:20;18.80;;;8.82;;
84476;SDS011;74700;43.228;0.108;2024-03-08T00:28:50;24.00;;;9.60;;
84476;SDS011;74700;43.228;0.108;2024-03-08T00:31:16;18.90;;;8.52;;
84476;SDS011;74700;43.228;0.108;2024-03-08T00:33:42;19.58;;;9.80;;
84476;SDS011;74700;43.228;0.108;2024-03-08T00:36:08;29.50;;;9.50;;
84476;SDS011;74700;43.228;0.108;2024-03-08T00:38:34;24.52;;;9.82;;
84476;SDS011;74700;43.228;0.108;2024-03-08T00:41:00;24.67;;;8.88;;
84476;SDS011;74700;43.228;0.108;2024-03-08T00:43:27;17.13;;;8.07;;
84476;SDS011;74700;43.228;0.108;2024-03-08T00:45:55;20.70;;;9.32;;
84476;SDS011;74700;43.228;0.108;2024-03-08T00:48:22;17.42;;;8.32;;
84476;SDS011;74700;43.228;0.108;2024-03-08T00:50:49;17.20;;;8.02;;
84476;SDS011;74700;43.228;0.108;2024-03-08T00:53:15;25.55;;;7.95;;
84476;SDS011;74700;43.228;0.108;2024-03-08T00:55:41;15.15;;;8.30;;
84476;SDS011;74700;43.228;0.108;2024-03-08T00:58:08;16.52;;;8.43;;
84476;SDS011;74700;43.228;0.108;2024-03-08T01:00:34;17.58;;;6.90;;
84476;SDS011;74700;43.228;0.108;2024-03-08T01:03:00;14.48;;;6.40;;
84476;SDS011;74700;43.228;0.108;2024-03-08T01:05:28;16.23;;;6.60;;
84476;SDS011;74700;43.228;0.108;2024-03-08T01:07:54;12.10;;;6.75;;
84476;SDS011;74700;43.228;0.108;2024-03-08T01:10:20;14.85;;;6.65;;
84476;SDS011;74700;43.228;0.108;2024-03-08T01:12:46;17.77;;;6.63;;
84476;SDS011;74700;43.228;0.108;2024-03-08T01:15:12;13.25;;;6.82;;
84476;SDS011;74700;43.228;0.108;2024-03-08T01:17:38;12.27;;;5.88;;
84476;SDS011;74700;43.228;0.108;2024-03-08T01:20:05;14.10;;;6.85;;
84476;SDS011;74700;43.228;0.108;2024-03-08T01:22:31;11.27;;;5.70;;
84476;SDS011;74700;43.228;0.108;2024-03-08T01:24:57;18.52;;;6.68;;
84476;SDS011;74700;43.228;0.108;2024-03-08T01:27:23;11.75;;;5.90;;
84476;SDS011;74700;43.228;0.108;2024-03-08T01:29:52;13.30;;;6.45;;
84476;SDS011;74700;43.228;0.108;2024-03-08T01:32:19;10.10;;;5.65;;
84476;SDS011;74700;43.228;0.108;2024-03-08T01:34:48;18.52;;;5.72;;
84476;SDS011;74700;43.228;0.108;2024-03-08T01:37:14;15.32;;;6.22;;
84476;SDS011;74700;43.228;0.108;2024-03-08T01:39:40;17.08;;;6.43;;
84476;SDS011;74700;43.228;0.108;2024-03-08T01:42:06;15.77;;;6.07;;
84476;SDS011;74700;43.228;0.108;2024-03-08T01:44:32;12.52;;;6.10;;
84476;SDS011;74700;43.228;0.108;2024-03-08T01:46:58;12.05;;;5.68;;
84476;SDS011;74700;43.228;0.108;2024-03-08T01:49:25;10.85;;;5.75;;
84476;SDS011;74700;43.228;0.108;2024-03-08T01:51:52;12.27;;;5.43;;
84476;SDS011;74700;43.228;0.108;2024-03-08T01:54:18;14.77;;;6.03;;
84476;SDS011;74700;43.228;0.108;2024-03-08T01:56:45;11.32;;;5.70;;
84476;SDS011;74700;43.228;0.108;2024-03-08T01:59:11;11.75;;;6.10;;
84476;SDS011;74700;43.228;0.108;2024-03-08T02:01:39;14.20;;;7.15;;
84476;SDS011;74700;43.228;0.108;2024-03-08T02:04:05;23.45;;;9.25;;
84476;SDS011;74700;43.228;0.108;2024-03-08T02:06:32;23.52;;;8.55;;
84476;SDS011;74700;43.228;0.108;2024-03-08T02:08:58;16.98;;;7.78;;
84476;SDS011;74700;43.228;0.108;2024-03-08T02:11:24;13.05;;;7.72;;
84476;SDS011;74700;43.228;0.108;2024-03-08T02:13:50;21.52;;;7.47;;
84476;SDS011;74700;43.228;0.108;2024-03-08T02:16:20;15.68;;;7.88;;
84476;SDS011;74700;43.228;0.108;2024-03-08T02:18:46;22.13;;;7.80;;
84476;SDS011;74700;43.228;0.108;2024-03-08T02:21:12;21.52;;;7.40;;
84476;SDS011;74700;43.228;0.108;2024-03-08T02:23:38;14.73;;;7.93;;
84476;SDS011;74700;43.228;0.108;2024-03-08T02:26:05;15.57;;;7.68;;
84476;SDS011;74700;43.228;0.108;2024-03-08T02:28:32;13.00;;;6.07;;
84476;SDS011;74700;43.228;0.108;2024-03-08T02:30:59;14.45;;;6.20;;
84476;SDS011;74700;43.228;0.108;2024-03-08T02:33:26;13.43;;;5.72;;
84476;SDS011;74700;43.228;0.108;2024-03-08T02:35:52;9.52;;;4.93;;
84476;SDS011;74700;43.228;0.108;2024-03-08T02:38:19;20.38;;;5.63;;
84476;SDS011;74700;43.228;0.108;2024-03-08T02:40:45;13.45;;;4.88;;
84476;SDS011;74700;43.228;0.108;2024-03-08T02:43:12;14.75;;;4.00;;
84476;SDS011;74700;43.228;0.108;2024-03-08T02:45:39;9.73;;;3.72;;
84476;SDS011;74700;43.228;0.108;2024-03-08T02:48:07;12.50;;;4.60;;
84476;SDS011;74700;43.228;0.108;2024-03-08T02:50:33;9.63;;;4.47;;
84476;SDS011;74700;43.228;0.108;2024-03-08T02:53:02;11.90;;;4.53;;
84476;SDS011;74700;43.228;0.108;2024-03-08T02:55:28;10.68;;;4.63;;
84476;SDS011;74700;43.228;0.108;2024-03-08T02:57:54;11.82;;;4.57;;
84476;SDS011;74700;43.228;0.108;2024-03-08T03:00:20;10.68;;;4.30;;
84476;SDS011;74700;43.228;0.108;2024-03-08T03:02:51;13.65;;;4.93;;
84476;SDS011;74700;43.228;0.108;2024-03-08T03:05:20;9.55;;;4.38;;
84476;SDS011;74700;43.228;0.108;2024-03-08T03:07:46;12.50;;;5.03;;
84476;SDS011;74700;43.228;0.108;2024-03-08T03:10:13;14.75;;;4.85;;
84476;SDS011;74700;43.228;0.108;2024-03-08T03:12:42;16.15;;;5.55;;
84476;SDS011;74700;43.228;0.108;2024-03-08T03:15:08;16.55;;;5.55;;
84476;SDS011;74700;43.228;0.108;2024-03-08T03:17:34;20.63;;;6.00;;
84476;SDS011;74700;43.228;0.108;2024-03-08T03:20:00;10.07;;;5.30;;
84476;SDS011;74700;43.228;0.108;2024-03-08T03:22:34;12.80;;;6.90;;
84476;SDS011;74700;43.228;0.108;2024-03-08T03:25:00;19.88;;;7.20;;
84476;SDS011;74700;43.228;0.108;2024-03-08T03:27:27;17.10;;;6.60;;
84476;SDS011;74700;43.228;0.108;2024-03-08T03:29:55;14.93;;;6.32;;
84476;SDS011;74700;43.228;0.108;2024-03-08T03:32:22;17.15;;;7.50;;
84476;SDS011;74700;43.228;0.108;2024-03-08T03:34:49;19.23;;;7.70;;
84476;SDS011;74700;43.228;0.108;2024-03-08T03:37:18;16.15;;;7.05;;
84476;SDS011;74700;43.228;0.108;2024-03-08T03:39:44;20.67;;;5.72;;
84476;SDS011;74700;43.228;0.108;2024-03-08T03:42:17;19.90;;;6.47;;
84476;SDS011;74700;43.228;0.108;2024-03-08T03:44:46;17.77;;;7.00;;
84476;SDS011;74700;43.228;0.108;2024-03-08T03:47:12;16.90;;;6.75;;
84476;SDS011;74700;43.228;0.108;2024-03-08T03:49:39;13.45;;;6.30;;
84476;SDS011;74700;43.228;0.108;2024-03-08T03:52:06;11.55;;;6.40;;
84476;SDS011;74700;43.228;0.108;2024-03-08T03:54:32;12.00;;;5.47;;
84476;SDS011;74700;43.228;0.108;2024-03-08T03:56:58;19.17;;;6.25;;
84476;SDS011;74700;43.228;0.108;2024-03-08T03:59:25;14.20;;;6.50;;
84476;SDS011;74700;43.228;0.108;2024-03-08T04:01:52;13.60;;;6.28;;
84476;SDS011;74700;43.228;0.108;2024-03-08T04:04:19;16.20;;;6.40;;
84476;SDS011;74700;43.228;0.108;2024-03-08T04:06:45;13.88;;;6.13;;
84476;SDS011;74700;43.228;0.108;2024-03-08T04:09:11;15.80;;;5.82;;
84476;SDS011;74700;43.228;0.108;2024-03-08T04:11:38;16.20;;;6.40;;
84476;SDS011;74700;43.228;0.108;2024-03-08T04:14:04;14.15;;;5.97;;
84476;SDS011;74700;43.228;0.108;2024-03-08T04:16:30;15.70;;;6.47;;
84476;SDS011;74700;43.228;0.108;2024-03-08T04:18:56;19.55;;;6.93;;
84476;SDS011;74700;43.228;0.108;2024-03-08T04:21:22;19.38;;;7.00;;
84476;SDS011;74700;43.228;0.108;2024-03-08T04:23:48;15.48;;;7.10;;
84476;SDS011;74700;43.228;0.108;2024-03-08T04:26:15;18.75;;;8.52;;
84476;SDS011;74700;43.228;0.108;2024-03-08T04:28:41;17.75;;;7.85;;
84476;SDS011;74700;43.228;0.108;2024-03-08T04:31:07;14.15;;;7.03;;
84476;SDS011;74700;43.228;0.108;2024-03-08T04:33:33;15.23;;;6.18;;
84476;SDS011;74700;43.228;0.108;2024-03-08T04:36:02;14.52;;;6.22;;
84476;SDS011;74700;43.228;0.108;2024-03-08T04:38:29;16.40;;;6.18;;
84476;SDS011;74700;43.228;0.108;2024-03-08T04:40:55;12.40;;;6.20;;
84476;SDS011;74700;43.228;0.108;2024-03-08T04:43:22;14.80;;;5.78;;
84476;SDS011;74700;43.228;0.108;2024-03-08T04:45:50;21.58;;;5.95;;
84476;SDS011;74700;43.228;0.108;2024-03-08T04:48:16;14.68;;;5.70;;
84476;SDS011;74700;43.228;0.108;2024-03-08T04:50:42;18.27;;;6.75;;
84476;SDS011;74700;43.228;0.108;2024-03-08T04:53:10;18.15;;;5.90;;
84476;SDS011;74700;43.228;0.108;2024-03-08T04:55:36;12.98;;;5.68;;
84476;SDS011;74700;43.228;0.108;2024-03-08T04:58:02;11.25;;;5.88;;
84476;SDS011;74700;43.228;0.108;2024-03-08T05:00:31;10.27;;;5.18;;
84476;SDS011;74700;43.228;0.108;2024-03-08T05:02:57;17.88;;;4.90;;
84476;SDS011;74700;43.228;0.108;2024-03-08T05:05:23;10.45;;;5.70;;
84476;SDS011;74700;43.228;0.108;2024-03-08T05:07:50;16.58;;;5.43;;
84476;SDS011;74700;43.228;0.108;2024-03-08T05:10:16;19.63;;;5.20;;
84476;SDS011;74700;43.228;0.108;2024-03-08T05:12:42;15.32;;;5.45;;
84476;SDS011;74700;43.228;0.108;2024-03-08T05:15:08;15.25;;;5.53;;
84476;SDS011;74700;43.228;0.108;2024-03-08T05:17:34;11.38;;;5.03;;
84476;SDS011;74700;43.228;0.108;2024-03-08T05:20:00;16.92;;;6.85;;
84476;SDS011;74700;43.228;0.108;2024-03-08T05:22:26;16.40;;;6.60;;
84476;SDS011;74700;43.228;0.108;2024-03-08T05:24:53;49.28;;;25.02;;
84476;SDS011;74700;43.228;0.108;2024-03-08T05:27:19;30.38;;;15.35;;
84476;SDS011;74700;43.228;0.108;2024-03-08T05:29:45;14.70;;;6.80;;
84476;SDS011;74700;43.228;0.108;2024-03-08T05:32:11;17.23;;;5.63;;
84476;SDS011;74700;43.228;0.108;2024-03-08T05:34:37;15.80;;;5.07;;
84476;SDS011;74700;43.228;0.108;2024-03-08T05:37:03;10.07;;;5.55;;
84476;SDS011;74700;43.228;0.108;2024-03-08T05:39:30;13.30;;;4.97;;
84476;SDS011;74700;43.228;0.108;2024-03-08T05:41:56;16.95;;;6.07;;
84476;SDS011;74700;43.228;0.108;2024-03-08T05:44:22;17.10;;;6.43;;
84476;SDS011;74700;43.228;0.108;2024-03-08T05:46:48;20.45;;;8.15;;
84476;SDS011;74700;43.228;0.108;2024-03-08T05:49:15;26.98;;;10.48;;
84476;SDS011;74700;43.228;0.108;2024-03-08T05:51:41;39.50;;;19.58;;
84476;SDS011;74700;43.228;0.108;2024-03-08T05:54:08;34.80;;;13.70;;
84476;SDS011;74700;43.228;0.108;2024-03-08T05:56:37;21.83;;;8.18;;
84476;SDS011;74700;43.228;0.108;2024-03-08T05:59:03;16.35;;;6.60;;
84476;SDS011;74700;43.228;0.108;2024-03-08T06:01:30;16.27;;;6.60;;
84476;SDS011;74700;43.228;0.108;2024-03-08T06:03:56;14.10;;;7.75;;
84476;SDS011;74700;43.228;0.108;2024-03-08T06:06:23;15.13;;;7.90;;
84476;SDS011;74700;43.228;0.108;2024-03-08T06:08:49;14.63;;;5.38;;
84476;SDS011;74700;43.228;0.108;2024-03-08T06:11:15;24.38;;;13.85;;
84476;SDS011;74700;43.228;0.108;2024-03-08T06:13:45;28.35;;;13.68;;
84476;SDS011;74700;43.228;0.108;2024-03-08T06:16:11;18.00;;;8.45;;
84476;SDS011;74700;43.228;0.108;2024-03-08T06:18:37;14.25;;;6.75;;
84476;SDS011;74700;43.228;0.108;2024-03-08T06:21:07;15.25;;;8.38;;
84476;SDS011;74700;43.228;0.108;2024-03-08T06:23:36;12.68;;;6.22;;
84476;SDS011;74700;43.228;0.108;2024-03-08T06:26:03;13.95;;;4.82;;
84476;SDS011;74700;43.228;0.108;2024-03-08T06:28:29;11.63;;;6.03;;
84476;SDS011;74700;43.228;0.108;2024-03-08T06:30:57;18.13;;;6.47;;
84476;SDS011;74700;43.228;0.108;2024-03-08T06:33:23;15.93;;;5.78;;
84476;SDS011;74700;43.228;0.108;2024-03-08T06:35:51;14.15;;;6.32;;
84476;SDS011;74700;43.228;0.108;2024-03-08T06:38:17;15.10;;;7.15;;
84476;SDS011;74700;43.228;0.108;2024-03-08T06:40:44;14.40;;;9.48;;
84476;SDS011;74700;43.228;0.108;2024-03-08T06:43:13;15.13;;;7.88;;
84476;SDS011;74700;43.228;0.108;2024-03-08T06:45:41;17.27;;;9.85;;
84476;SDS011;74700;43.228;0.108;2024-03-08T06:48:07;16.52;;;9.75;;
84476;SDS011;74700;43.228;0.108;2024-03-08T06:50:34;22.25;;;14.13;;
84476;SDS011;74700;43.228;0.108;2024-03-08T06:53:01;30.15;;;15.88;;
84476;SDS011;74700;43.228;0.108;2024-03-08T06:55:28;26.55;;;16.42;;
84476;SDS011;74700;43.228;0.108;2024-03-08T06:57:54;28.25;;;13.25;;
84476;SDS011;74700;43.228;0.108;2024-03-08T07:00:20;23.27;;;13.60;;
84476;SDS011;74700;43.228;0.108;2024-03-08T07:02:51;14.77;;;8.95;;
84476;SDS011;74700;43.228;0.108;2024-03-08T07:05:18;11.93;;;6.57;;
84476;SDS011;74700;43.228;0.108;2024-03-08T07:07:45;12.85;;;6.88;;
84476;SDS011;74700;43.228;0.108;2024-03-08T07:10:13;16.30;;;7.43;;
84476;SDS011;74700;43.228;0.108;2024-03-08T07:12:40;18.45;;;8.57;;
84476;SDS011;74700;43.228;0.108;2024-03-08T07:15:07;19.52;;;9.40;;
84476;SDS011;74700;43.228;0.108;2024-03-08T07:17:38;16.90;;;8.10;;
84476;SDS011;74700;43.228;0.108;2024-03-08T07:20:05;14.43;;;7.28;;
84476;SDS011;74700;43.228;0.108;2024-03-08T07:22:36;17.92;;;9.20;;
84476;SDS011;74700;43.228;0.108;2024-03-08T07:25:04;16.70;;;8.95;;
84476;SDS011;74700;43.228;0.108;2024-03-08T07:27:53;14.45;;;8.45;;
84476;SDS011;74700;43.228;0.108;2024-03-08T07:30:20;20.48;;;9.98;;
84476;SDS011;74700;43.228;0.108;2024-03-08T07:33:24;31.83;;;18.73;;
84476;SDS011;74700;43.228;0.108;2024-03-08T07:35:52;28.65;;;15.88;;
84476;SDS011;74700;43.228;0.108;2024-03-08T07:38:18;24.83;;;15.15;;
84476;SDS011;74700;43.228;0.108;2024-03-08T07:40:46;26.55;;;12.93;;
84476;SDS011;74700;43.228;0.108;2024-03-08T07:43:13;35.45;;;16.08;;
84476;SDS011;74700;43.228;0.108;2024-03-08T07:45:39;19.48;;;11.55;;
84476;SDS011;74700;43.228;0.108;2024-03-08T07:48:05;14.63;;;10.18;;
84476;SDS011;74700;43.228;0.108;2024-03-08T07:50:36;18.42;;;10.18;;
84476;SDS011;74700;43.228;0.108;2024-03-08T07:53:02;14.77;;;8.38;;
84476;SDS011;74700;43.228;0.108;2024-03-08T07:55:28;19.25;;;7.13;;
84476;SDS011;74700;43.228;0.108;2024-03-08T07:57:56;11.38;;;5.53;;
84476;SDS011;74700;43.228;0.108;2024-03-08T08:00:22;14.18;;;5.03;;
84476;SDS011;74700;43.228;0.108;2024-03-08T08:02:49;13.43;;;4.22;;
84476;SDS011;74700;43.228;0.108;2024-03-08T08:05:15;9.98;;;5.70;;
84476;SDS011;74700;43.228;0.108;2024-03-08T08:07:46;8.45;;;5.40;;
84476;SDS011;74700;43.228;0.108;2024-03-08T08:10:12;9.35;;;5.28;;
84476;SDS011;74700;43.228;0.108;2024-03-08T08:12:47;9.55;;;5.35;;
84476;SDS011;74700;43.228;0.108;2024-03-08T08:15:13;12.75;;;5.10;;
84476;SDS011;74700;43.228;0.108;2024-03-08T08:17:40;11.13;;;4.85;;
84476;SDS011;74700;43.228;0.108;2024-03-08T08:20:07;10.57;;;4.85;;
84476;SDS011;74700;43.228;0.108;2024-03-08T08:22:33;12.02;;;4.78;;
84476;SDS011;74700;43.228;0.108;2024-03-08T08:24:59;6.93;;;4.18;;
84476;SDS011;74700;43.228;0.108;2024-03-08T08:27:26;11.27;;;4.70;;
84476;SDS011;74700;43.228;0.108;2024-03-08T08:29:52;8.25;;;4.00;;
84476;SDS011;74700;43.228;0.108;2024-03-08T08:32:18;7.00;;;4.00;;
84476;SDS011;74700;43.228;0.108;2024-03-08T08:34:45;11.10;;;6.03;;
84476;SDS011;74700;43.228;0.108;2024-03-08T08:37:11;11.00;;;5.95;;
84476;SDS011;74700;43.228;0.108;2024-03-08T08:39:37;15.35;;;7.43;;
84476;SDS011;74700;43.228;0.108;2024-03-08T08:42:03;14.68;;;7.30;;
84476;SDS011;74700;43.228;0.108;2024-03-08T08:44:29;16.27;;;6.95;;
84476;SDS011;74700;43.228;0.108;2024-03-08T08:47:00;11.00;;;5.22;;
84476;SDS011;74700;43.228;0.108;2024-03-08T08:49:26;17.05;;;6.07;;
84476;SDS011;74700;43.228;0.108;2024-03-08T08:51:52;19.17;;;5.75;;
84476;SDS011;74700;43.228;0.108;2024-03-08T08:54:18;11.40;;;5.82;;
84476;SDS011;74700;43.228;0.108;2024-03-08T08:56:45;10.90;;;5.95;;
84476;SDS011;74700;43.228;0.108;2024-03-08T08:59:12;10.38;;;6.45;;
84476;SDS011;74700;43.228;0.108;2024-03-08T09:01:39;13.93;;;5.72;;
84476;SDS011;74700;43.228;0.108;2024-03-08T09:04:05;14.93;;;5.65;;
84476;SDS011;74700;43.228;0.108;2024-03-08T09:06:32;11.65;;;5.72;;
84476;SDS011;74700;43.228;0.108;2024-03-08T09:08:58;10.70;;;4.95;;
84476;SDS011;74700;43.228;0.108;2024-03-08T09:11:24;12.63;;;5.80;;
84476;SDS011;74700;43.228;0.108;2024-03-08T09:13:51;12.13;;;5.13;;
84476;SDS011;74700;43.228;0.108;2024-03-08T09:16:18;18.67;;;6.05;;
84476;SDS011;74700;43.228;0.108;2024-03-08T09:18:44;18.73;;;8.05;;
84476;SDS011;74700;43.228;0.108;2024-03-08T09:21:10;15.38;;;7.68;;
84476;SDS011;74700;43.228;0.108;2024-03-08T09:23:38;21.58;;;8.38;;
84476;SDS011;74700;43.228;0.108;2024-03-08T09:26:05;14.10;;;7.30;;
84476;SDS011;74700;43.228;0.108;2024-03-08T09:28:34;16.02;;;7.55;;
84476;SDS011;74700;43.228;0.108;2024-03-08T09:31:00;14.73;;;6.85;;
84476;SDS011;74700;43.228;0.108;2024-03-08T09:33:26;12.88;;;6.40;;
84476;SDS011;74700;43.228;0.108;2024-03-08T09:35:53;16.23;;;7.32;;
84476;SDS011;74700;43.228;0.108;2024-03-08T09:38:19;17.13;;;7.88;;
84476;SDS011;74700;43.228;0.108;2024-03-08T09:40:45;11.52;;;7.00;;
84476;SDS011;74700;43.228;0.108;2024-03-08T09:43:13;13.55;;;8.13;;
84476;SDS011;74700;43.228;0.108;2024-03-08T09:45:39;19.27;;;7.22;;
84476;SDS011;74700;43.228;0.108;2024-03-08T09:48:15;17.17;;;7.13;;
84476;SDS011;74700;43.228;0.108;2024-03-08T09:50:42;11.90;;;6.50;;
84476;SDS011;74700;43.228;0.108;2024-03-08T09:53:08;16.75;;;6.72;;
84476;SDS011;74700;43.228;0.108;2024-03-08T09:55:37;16.33;;;5.60;;
84476;SDS011;74700;43.228;0.108;2024-03-08T09:58:07;15.18;;;5.95;;
84476;SDS011;74700;43.228;0.108;2024-03-08T10:00:54;16.98;;;6.25;;
84476;SDS011;74700;43.228;0.108;2024-03-08T10:03:22;12.02;;;5.95;;
84476;SDS011;74700;43.228;0.108;2024-03-08T10:05:51;11.98;;;5.65;;
84476;SDS011;74700;43.228;0.108;2024-03-08T10:08:17;17.23;;;6.13;;
84476;SDS011;74700;43.228;0.108;2024-03-08T10:10:44;14.57;;;7.80;;
84476;SDS011;74700;43.228;0.108;2024-03-08T10:13:10;17.98;;;6.65;;
84476;SDS011;74700;43.228;0.108;2024-03-08T10:15:37;15.50;;;6.28;;
84476;SDS011;74700;43.228;0.108;2024-03-08T10:18:05;11.25;;;5.63;;
84476;SDS011;74700;43.228;0.108;2024-03-08T10:20:32;15.57;;;5.70;;
84476;SDS011;74700;43.228;0.108;2024-03-08T10:23:01;12.27;;;6.03;;
84476;SDS011;74700;43.228;0.108;2024-03-08T10:25:29;12.52;;;5.43;;
84476;SDS011;74700;43.228;0.108;2024-03-08T10:27:56;14.43;;;5.03;;
84476;SDS011;74700;43.228;0.108;2024-03-08T10:30:22;9.00;;;5.32;;
84476;SDS011;74700;43.228;0.108;2024-03-08T10:32:48;11.13;;;4.57;;
84476;SDS011;74700;43.228;0.108;2024-03-08T10:35:16;18.50;;;4.78;;
84476;SDS011;74700;43.228;0.108;2024-03-08T10:37:46;13.00;;;5.72;;
84476;SDS011;74700;43.228;0.108;2024-03-08T10:40:15;15.90;;;4.90;;
84476;SDS011;74700;43.228;0.108;2024-03-08T10:42:52;16.30;;;4.95;;
84476;SDS011;74700;43.228;0.108;2024-03-08T10:47:49;9.77;;;4.68;;
84476;SDS011;74700;43.228;0.108;2024-03-08T10:50:18;10.38;;;4.22;;
84476;SDS011;74700;43.228;0.108;2024-03-08T10:52:50;10.77;;;4.22;;
84476;SDS011;74700;43.228;0.108;2024-03-08T10:55:17;14.10;;;4.82;;
84476;SDS011;74700;43.228;0.108;2024-03-08T10:57:45;13.82;;;5.53;;
84476;SDS011;74700;43.228;0.108;2024-03-08T11:00:12;8.88;;;5.18;;
84476;SDS011;74700;43.228;0.108;2024-03-08T11:02:39;10.00;;;4.70;;
84476;SDS011;74700;43.228;0.108;2024-03-08T11:05:15;11.20;;;3.65;;
84476;SDS011;74700;43.228;0.108;2024-03-08T11:08:00;9.18;;;3.42;;
84476;SDS011;74700;43.228;0.108;2024-03-08T11:10:26;10.55;;;4.82;;
84476;SDS011;74700;43.228;0.108;2024-03-08T11:12:52;7.85;;;3.10;;
84476;SDS011;74700;43.228;0.108;2024-03-08T11:15:18;14.95;;;3.30;;
84476;SDS011;74700;43.228;0.108;2024-03-08T11:17:47;6.85;;;3.15;;
84476;SDS011;74700;43.228;0.108;2024-03-08T11:20:15;5.03;;;2.78;;
84476;SDS011;74700;43.228;0.108;2024-03-08T11:22:48;4.07;;;2.70;;
84476;SDS011;74700;43.228;0.108;2024-03-08T11:28:16;16.30;;;2.83;;
84476;SDS011;74700;43.228;0.108;2024-03-08T11:30:43;7.07;;;2.47;;
84476;SDS011;74700;43.228;0.108;2024-03-08T11:33:16;11.95;;;2.70;;
84476;SDS011;74700;43.228;0.108;2024-03-08T11:35:42;7.85;;;2.17;;
84476;SDS011;74700;43.228;0.108;2024-03-08T11:38:11;4.82;;;2.30;;
84476;SDS011;74700;43.228;0.108;2024-03-08T11:40:38;4.78;;;2.70;;
84476;SDS011;74700;43.228;0.108;2024-03-08T11:43:05;9.77;;;2.55;;
84476;SDS011;74700;43.228;0.108;2024-03-08T11:45:32;4.72;;;2.75;;
84476;SDS011;74700;43.228;0.108;2024-03-08T11:48:01;6.60;;;2.88;;
84476;SDS011;74700;43.228;0.108;2024-03-08T11:50:28;6.88;;;2.65;;
84476;SDS011;74700;43.228;0.108;2024-03-08T11:53:00;3.20;;;2.30;;
84476;SDS011;74700;43.228;0.108;2024-03-08T11:55:27;3.55;;;2.10;;
84476;SDS011;74700;43.228;0.108;2024-03-08T11:58:03;3.38;;;2.20;;
84476;SDS011;74700;43.228;0.108;2024-03-08T12:00:30;6.53;;;2.35;;
84476;SDS011;74700;43.228;0.108;2024-03-08T12:05:29;6.57;;;2.20;;
84476;SDS011;74700;43.228;0.108;2024-03-08T12:07:56;4.38;;;2.20;;
84476;SDS011;74700;43.228;0.108;2024-03-08T12:10:23;5.40;;;2.10;;
84476;SDS011;74700;43.228;0.108;2024-03-08T12:12:53;4.05;;;1.90;;
84476;SDS011;74700;43.228;0.108;2024-03-08T12:15:21;4.82;;;1.95;;
84476;SDS011;74700;43.228;0.108;2024-03-08T12:17:48;3.05;;;1.88;;
84476;SDS011;74700;43.228;0.108;2024-03-08T12:20:19;6.43;;;2.25;;
84476;SDS011;74700;43.228;0.108;2024-03-08T12:22:49;5.60;;;2.00;;
84476;SDS011;74700;43.228;0.108;2024-03-08T12:25:19;3.08;;;2.13;;
84476;SDS011;74700;43.228;0.108;2024-03-08T12:27:45;5.32;;;2.42;;
84476;SDS011;74700;43.228;0.108;2024-03-08T12:30:24;4.20;;;1.95;;
84476;SDS011;74700;43.228;0.108;2024-03-08T12:32:58;6.55;;;1.88;;
84476;SDS011;74700;43.228;0.108;2024-03-08T12:35:25;2.10;;;1.50;;
84476;SDS011;74700;43.228;0.108;2024-03-08T12:37:52;2.50;;;1.90;;
84476;SDS011;74700;43.228;0.108;2024-03-08T12:40:19;2.95;;;1.70;;
84476;SDS011;74700;43.228;0.108;2024-03-08T12:42:51;1.80;;;1.42;;
84476;SDS011;74700;43.228;0.108;2024-03-08T12:45:17;2.30;;;1.77;;
84476;SDS011;74700;43.228;0.108;2024-03-08T12:47:43;2.17;;;1.58;;
84476;SDS011;74700;43.228;0.108;2024-03-08T12:50:10;1.52;;;1.40;;
84476;SDS011;74700;43.228;0.108;2024-03-08T12:52:36;4.05;;;1.60;;
84476;SDS011;74700;43.228;0.108;2024-03-08T12:55:02;2.13;;;1.58;;
84476;SDS011;74700;43.228;0.108;2024-03-08T12:57:32;4.28;;;1.90;;
84476;SDS011;74700;43.228;0.108;2024-03-08T12:59:59;2.28;;;1.33;;
84476;SDS011;74700;43.228;0.108;2024-03-08T13:02:25;1.65;;;1.27;;
84476;SDS011;74700;43.228;0.108;2024-03-08T13:04:51;2.25;;;1.63;;
84476;SDS011;74700;43.228;0.108;2024-03-08T13:07:22;5.15;;;1.95;;
84476;SDS011;74700;43.228;0.108;2024-03-08T13:09:51;5.47;;;1.67;;
84476;SDS011;74700;43.228;0.108;2024-03-08T13:12:17;2.83;;;1.50;;
84476;SDS011;74700;43.228;0.108;2024-03-08T13:14:45;2.35;;;1.30;;
84476;SDS011;74700;43.228;0.108;2024-03-08T13:17:12;3.08;;;1.60;;
84476;SDS011;74700;43.228;0.108;2024-03-08T13:19:38;2.47;;;1.20;;
84476;SDS011;74700;43.228;0.108;2024-03-08T13:22:04;1.50;;;1.40;;
84476;SDS011;74700;43.228;0.108;2024-03-08T13:24:32;2.90;;;1.38;;
84476;SDS011;74700;43.228;0.108;2024-03-08T13:26:59;2.17;;;1.60;;
84476;SDS011;74700;43.228;0.108;2024-03-08T13:29:25;4.63;;;1.50;;
84476;SDS011;74700;43.228;0.108;2024-03-08T13:31:51;1.50;;;1.40;;
84476;SDS011;74700;43.228;0.108;2024-03-08T13:34:20;1.77;;;1.52;;
84476;SDS011;74700;43.228;0.108;2024-03-08T13:36:54;4.90;;;1.80;;
84476;SDS011;74700;43.228;0.108;2024-03-08T13:39:25;3.55;;;1.73;;
84476;SDS011;74700;43.228;0.108;2024-03-08T13:41:51;1.95;;;1.38;;
84476;SDS011;74700;43.228;0.108;2024-03-08T13:44:17;4.45;;;1.70;;
84476;SDS011;74700;43.228;0.108;2024-03-08T13:46:43;4.55;;;1.40;;
84476;SDS011;74700;43.228;0.108;2024-03-08T13:49:09;5.57;;;1.60;;
84476;SDS011;74700;43.228;0.108;2024-03-08T13:51:36;3.00;;;1.85;;
84476;SDS011;74700;43.228;0.108;2024-03-08T13:54:02;3.63;;;1.55;;
84476;SDS011;74700;43.228;0.108;2024-03-08T13:56:31;4.97;;;1.70;;
84476;SDS011;74700;43.228;0.108;2024-03-08T13:58:57;1.20;;;1.20;;
84476;SDS011;74700;43.228;0.108;2024-03-08T14:01:23;2.58;;;1.10;;
84476;SDS011;74700;43.228;0.108;2024-03-08T14:03:50;4.05;;;1.50;;
84476;SDS011;74700;43.228;0.108;2024-03-08T14:06:16;2.13;;;1.25;;
84476;SDS011;74700;43.228;0.108;2024-03-08T14:08:42;5.25;;;1.83;;
84476;SDS011;74700;43.228;0.108;2024-03-08T14:11:08;2.33;;;1.25;;
84476;SDS011;74700;43.228;0.108;2024-03-08T14:13:44;2.45;;;1.55;;
84476;SDS011;74700;43.228;0.108;2024-03-08T14:16:11;3.08;;;1.40;;
84476;SDS011;74700;43.228;0.108;2024-03-08T14:18:37;1.33;;;1.25;;
84476;SDS011;74700;43.228;0.108;2024-03-08T14:21:03;3.25;;;1.45;;
84476;SDS011;74700;43.228;0.108;2024-03-08T14:23:30;2.72;;;1.80;;
84476;SDS011;74700;43.228;0.108;2024-03-08T14:25:56;1.60;;;1.50;;
84476;SDS011;74700;43.228;0.108;2024-03-08T14:28:24;2.63;;;1.50;;
84476;SDS011;74700;43.228;0.108;2024-03-08T14:30:51;2.58;;;1.50;;
84476;SDS011;74700;43.228;0.108;2024-03-08T14:33:17;4.22;;;1.83;;
84476;SDS011;74700;43.228;0.108;2024-03-08T14:35:44;5.93;;;1.80;;
84476;SDS011;74700;43.228;0.108;2024-03-08T14:38:12;2.80;;;1.70;;
84476;SDS011;74700;43.228;0.108;2024-03-08T14:40:38;1.50;;;1.40;;
84476;SDS011;74700;43.228;0.108;2024-03-08T14:43:04;2.33;;;1.60;;
84476;SDS011;74700;43.228;0.108;2024-03-08T14:45:31;2.05;;;1.50;;
84476;SDS011;74700;43.228;0.108;2024-03-08T14:47:57;2.17;;;1.52;;